This is the latest recevied weather packets stored in our database for station/object VK3AGD-9. If no packets are shown the sender has not sent any weather packets the latest 10 day(s).
| Time | Temp. | Humidity | Pressure | Rain* | Wind** | Luminosity | Snow |
|---|---|---|---|---|---|---|---|
| 1787649413 | 11.11° C | 99% | - | 0 mm | - | - | - |
| 1787648453 | 11.11° C | 99% | - | 0 mm | - | - | - |
| 1787647589 | 11.67° C | 99% | - | 0 mm | - | - | - |
| 1787646629 | 11.67° C | 99% | - | 0 mm | - | - | - |
| 1787645765 | 12.22° C | 99% | - | 0 mm | - | - | - |
| 1787644900 | 12.22° C | 98% | - | 0 mm | - | - | - |
| 1787643942 | 12.22° C | 98% | - | 0 mm | - | - | - |
| 1787643077 | 12.78° C | 98% | - | 0 mm | - | - | - |
| 1787642214 | 12.78° C | 98% | - | 0 mm | - | - | - |
| 1787641253 | 12.78° C | 98% | - | 0 mm | - | - | - |
| 1787640388 | 12.78° C | 97% | - | 0 mm | - | - | - |
| 1787639428 | 12.78° C | 97% | - | 0 mm | - | - | - |
| 1787638565 | 13.33° C | 96% | - | 0 mm | - | - | - |
| 1787637701 | 13.33° C | 96% | - | 0 mm | - | - | - |
| 1787636741 | 13.33° C | 96% | - | 0 mm | - | - | - |
| 1787635877 | 13.33° C | 96% | - | 0 mm | - | - | - |
| 1787635012 | 13.33° C | 96% | - | 0 mm | - | - | - |
| 1787634053 | 13.89° C | 93% | - | 0 mm | - | - | - |
| 1787633284 | 14.44° C | 91% | - | 0 mm | - | - | - |
| 1787632229 | 14.44° C | 89% | - | 0 mm | - | - | - |
| 1787631365 | 14.44° C | 88% | - | 0 mm | - | - | - |
| 1787630501 | 14.44° C | 90% | - | 0 mm | - | - | - |
| 1787629541 | 14.44° C | 92% | - | 0 mm | - | - | - |
| 1787628677 | 13.89° C | 94% | - | 0 mm | - | - | - |
| 1787627812 | 13.33° C | 97% | - | 0 mm | - | - | - |
* Rain latest hour (hover to see other rain measurements)
** Current wind speed in m/s (hover to see current wind gust speed)